Time;durP1;ratioP1;P1;durP2;ratioP2;P2;SDS_P1;SDS_P2;PMS_P1;PMS_P2;Temp;Humidity;BMP_temperature;BMP_pressure;BME280_temperature;BME280_humidity;BME280_pressure;Samples;Min_cycle;Max_cycle;Signal;HPM_P1;HPM_P2
2021/09/24 00:00:14;;;;;;;8.88;2.30;;;;;;;16.13;71.76;101833.44;5044243;28;20636;-49
2021/09/24 00:02:39;;;;;;;6.03;2.55;;;;;;;16.08;72.01;101829.03;5047028;28;20060;-48
2021/09/24 00:05:05;;;;;;;6.20;2.38;;;;;;;16.04;71.94;101828.13;5041574;28;20247;-50
2021/09/24 00:07:30;;;;;;;5.03;2.28;;;;;;;16.02;72.05;101831.63;5043021;28;20067;-54
2021/09/24 00:09:56;;;;;;;5.43;2.47;;;;;;;16.04;72.29;101827.25;5047796;28;20063;-48
2021/09/24 00:12:21;;;;;;;4.32;2.22;;;;;;;16.02;72.35;101827.25;5047267;28;20408;-51
2021/09/24 00:14:46;;;;;;;9.68;2.53;;;;;;;16.01;72.17;101820.22;5043364;28;20429;-49
2021/09/24 00:17:13;;;;;;;7.18;2.40;;;;;;;16.00;72.02;101823.72;5042322;28;20408;-49
2021/09/24 00:19:39;;;;;;;5.90;2.47;;;;;;;16.00;72.02;101825.47;5047372;28;20040;-47
2021/09/24 00:22:04;;;;;;;4.55;2.17;;;;;;;16.03;72.24;101817.63;5043929;28;20591;-47
2021/09/24 00:24:29;;;;;;;4.97;2.20;;;;;;;16.06;72.49;101823.75;5025949;28;20055;-48
2021/09/24 00:26:57;;;;;;;5.30;2.10;;;;;;;16.05;72.82;101815.84;5039772;28;20079;-54
2021/09/24 00:29:23;;;;;;;5.22;2.45;;;;;;;16.08;72.98;101815.88;5045048;28;20088;-52
2021/09/24 00:31:48;;;;;;;6.45;2.42;;;;;;;16.09;72.68;101823.78;5030840;28;20040;-50
2021/09/24 00:34:13;;;;;;;5.57;2.38;;;;;;;16.07;72.72;101811.47;5048611;28;20040;-49
2021/09/24 00:36:39;;;;;;;6.03;2.28;;;;;;;16.11;72.98;101818.50;5047801;28;20040;-50
2021/09/24 00:39:04;;;;;;;6.72;2.38;;;;;;;16.17;72.68;101806.28;5041171;28;20048;-50
2021/09/24 00:41:29;;;;;;;6.82;2.25;;;;;;;16.27;72.74;101808.97;5045611;28;20368;-51
2021/09/24 00:43:55;;;;;;;5.18;2.40;;;;;;;16.35;72.40;101801.97;5030910;28;20091;-49
2021/09/24 00:46:20;;;;;;;4.45;2.17;;;;;;;16.42;72.22;101796.75;5048783;28;20028;-49
2021/09/24 00:48:46;;;;;;;4.68;2.40;;;;;;;16.44;71.37;101796.75;5042743;28;20155;-49
2021/09/24 00:51:12;;;;;;;6.22;2.20;;;;;;;16.42;71.95;101802.00;5048450;28;20076;-49
2021/09/24 00:53:37;;;;;;;4.95;2.45;;;;;;;16.42;72.26;101795.88;5044935;28;20678;-51
2021/09/24 00:56:03;;;;;;;4.97;2.30;;;;;;;16.40;72.28;101795.00;5048800;28;20452;-51
2021/09/24 00:58:28;;;;;;;6.75;2.55;;;;;;;16.38;72.16;101797.63;5042562;28;21026;-48
2021/09/24 01:00:54;;;;;;;6.60;2.50;;;;;;;16.40;72.21;101795.00;5039358;28;20093;-48
2021/09/24 01:03:19;;;;;;;4.85;2.22;;;;;;;16.45;72.48;101801.16;5045778;28;20044;-50
2021/09/24 01:05:44;;;;;;;7.75;2.40;;;;;;;16.54;72.35;101780.13;5044988;28;20052;-48
2021/09/24 01:08:10;;;;;;;5.80;2.25;;;;;;;16.63;71.79;101786.34;5048854;28;20055;-51
2021/09/24 01:10:36;;;;;;;5.72;2.30;;;;;;;16.68;71.48;101782.84;5009261;28;20106;-52
2021/09/24 01:13:01;;;;;;;6.10;2.53;;;;;;;16.66;71.66;101784.56;5018124;28;20135;-50
2021/09/24 01:15:26;;;;;;;7.05;2.40;;;;;;;16.68;71.47;101774.94;5040940;28;20521;-52
2021/09/24 01:17:52;;;;;;;5.45;2.42;;;;;;;16.70;71.53;101781.97;5043725;28;20040;-48
2021/09/24 01:20:20;;;;;;;6.45;2.45;;;;;;;16.74;71.37;101780.22;5049541;28;20710;-48
2021/09/24 01:22:49;;;;;;;4.95;2.40;;;;;;;16.76;71.43;101784.63;5043110;28;20052;-49
2021/09/24 01:25:16;;;;;;;6.93;2.50;;;;;;;16.76;71.37;101782.00;5045400;28;20045;-49
2021/09/24 01:27:42;;;;;;;7.47;2.40;;;;;;;16.81;71.31;101782.88;5048086;28;20565;-51
2021/09/24 01:30:08;;;;;;;5.63;2.50;;;;;;;16.87;71.09;101780.25;5042858;28;20033;-51
2021/09/24 01:32:34;;;;;;;5.80;2.42;;;;;;;16.89;70.96;101773.25;5044055;28;20090;-48
2021/09/24 01:35:00;;;;;;;8.90;2.55;;;;;;;16.90;70.92;101774.97;5037810;28;20044;-52
2021/09/24 01:37:26;;;;;;;8.88;2.40;;;;;;;16.89;70.36;101769.72;5029277;28;20028;-51
2021/09/24 01:39:51;;;;;;;7.57;2.40;;;;;;;16.83;70.03;101761.81;5044785;28;20051;-51
2021/09/24 01:42:20;;;;;;;6.20;2.22;;;;;;;16.74;70.33;101760.03;5043404;28;20358;-50
2021/09/24 01:44:45;;;;;;;7.68;2.30;;;;;;;16.65;70.43;101761.78;5044000;28;20125;-51
2021/09/24 01:47:11;;;;;;;8.68;2.55;;;;;;;16.51;70.80;101765.22;5042485;28;20132;-52
2021/09/24 01:49:36;;;;;;;5.30;2.45;;;;;;;16.43;71.47;101755.50;5035653;28;20128;-51
2021/09/24 01:52:02;;;;;;;6.75;2.10;;;;;;;16.31;71.40;101756.34;5027756;28;20048;-51
2021/09/24 01:54:27;;;;;;;4.40;2.30;;;;;;;16.25;71.77;101753.69;5049740;28;20476;-54
2021/09/24 01:56:53;;;;;;;5.05;2.13;;;;;;;16.23;71.77;101745.78;5016616;28;20056;-51
2021/09/24 01:59:18;;;;;;;7.78;2.55;;;;;;;16.18;71.67;101739.63;5046622;28;20072;-54
2021/09/24 02:01:43;;;;;;;6.60;2.45;;;;;;;16.10;72.17;101737.88;5043424;28;20623;-50
2021/09/24 02:04:09;;;;;;;8.88;2.70;;;;;;;16.05;72.24;101737.81;5046831;28;20052;-50
2021/09/24 02:06:34;;;;;;;7.95;2.03;;;;;;;16.02;72.14;101729.94;5047584;28;20035;-52
2021/09/24 02:09:00;;;;;;;6.80;2.50;;;;;;;15.96;72.14;101736.91;5038057;28;20071;-48
2021/09/24 02:11:25;;;;;;;6.25;2.35;;;;;;;15.94;72.47;101736.00;5047765;28;20079;-48
2021/09/24 02:13:51;;;;;;;4.15;2.17;;;;;;;15.92;72.38;101729.88;5040989;28;20069;-48
2021/09/24 02:16:16;;;;;;;4.78;2.20;;;;;;;15.89;72.61;101735.13;5041086;28;20054;-50
2021/09/24 02:18:43;;;;;;;5.05;2.15;;;;;;;15.84;72.53;101735.09;5028220;28;20401;-52
2021/09/24 02:21:09;;;;;;;8.05;2.38;;;;;;;15.79;72.40;101731.56;5018887;28;20356;-50
2021/09/24 02:23:35;;;;;;;7.65;2.60;;;;;;;15.75;72.69;101737.66;5046002;28;20433;-52
2021/09/24 02:26:00;;;;;;;9.15;2.53;;;;;;;15.74;72.60;101728.88;5043504;28;20390;-54
2021/09/24 02:28:26;;;;;;;6.32;2.50;;;;;;;15.70;72.54;101729.75;5040265;28;20052;-60
2021/09/24 02:30:51;;;;;;;5.78;2.40;;;;;;;15.68;72.67;101735.84;5041256;28;20417;-47
2021/09/24 02:33:17;;;;;;;6.45;2.47;;;;;;;15.64;72.60;101736.72;5043511;28;20048;-48
2021/09/24 02:35:42;;;;;;;5.50;2.53;;;;;;;15.64;72.57;101736.72;5042203;28;20044;-50
2021/09/24 02:38:08;;;;;;;5.25;2.30;;;;;;;15.62;72.73;101728.81;5045043;28;20523;-47
2021/09/24 02:40:33;;;;;;;7.32;2.65;;;;;;;15.60;72.99;101724.44;5045044;28;20075;-48
2021/09/24 02:42:59;;;;;;;7.55;2.35;;;;;;;15.60;72.95;101725.31;5017227;28;20113;-47
2021/09/24 02:45:24;;;;;;;9.43;2.60;;;;;;;15.55;73.01;101734.03;5043214;28;20562;-47
2021/09/24 02:47:49;;;;;;;4.97;2.20;;;;;;;15.52;73.17;101734.91;5042797;28;20512;-47
2021/09/24 02:50:15;;;;;;;5.88;2.67;;;;;;;15.48;72.97;101735.72;5045523;28;20040;-48
2021/09/24 02:52:40;;;;;;;5.50;2.58;;;;;;;15.44;73.18;101739.16;5025763;28;20325;-48
2021/09/24 02:55:07;;;;;;;6.50;2.60;;;;;;;15.46;72.93;101728.69;5020825;28;20356;-50
2021/09/24 02:57:33;;;;;;;8.63;2.90;;;;;;;15.45;73.27;101730.41;5038575;28;20450;-53
2021/09/24 02:59:59;;;;;;;4.22;2.30;;;;;;;15.47;73.25;101733.94;5025294;28;20036;-52
2021/09/24 03:02:26;;;;;;;5.78;2.65;;;;;;;15.39;73.35;101731.25;5046425;28;20680;-53
2021/09/24 03:04:51;;;;;;;6.55;2.40;;;;;;;15.32;73.32;101732.06;5036604;28;20163;-49
2021/09/24 03:07:16;;;;;;;5.53;2.60;;;;;;;15.33;73.76;101727.72;5042930;28;20553;-47
2021/09/24 03:09:42;;;;;;;6.32;2.72;;;;;;;15.29;73.69;101729.44;5047125;28;20044;-51
2021/09/24 03:12:07;;;;;;;6.60;2.60;;;;;;;15.33;73.64;101728.59;5044877;28;20055;-48
2021/09/24 03:14:33;;;;;;;8.05;3.00;;;;;;;15.31;73.83;101730.31;5042509;28;20032;-49
2021/09/24 03:16:58;;;;;;;5.38;2.47;;;;;;;15.30;73.76;101722.44;5015644;28;20048;-48
2021/09/24 03:19:24;;;;;;;7.70;2.40;;;;;;;15.30;73.83;101711.94;5044652;28;20032;-52
2021/09/24 03:21:50;;;;;;;5.43;2.28;;;;;;;15.29;73.65;101707.53;5043484;28;20049;-48
2021/09/24 03:24:16;;;;;;;7.38;2.80;;;;;;;15.27;73.92;101711.91;5044394;28;20144;-47
2021/09/24 03:26:41;;;;;;;5.82;2.67;;;;;;;15.24;73.88;101707.53;5046265;28;20045;-53
2021/09/24 03:29:08;;;;;;;6.53;2.88;;;;;;;15.25;74.28;101709.25;5039407;28;20044;-48
2021/09/24 03:31:34;;;;;;;6.72;2.97;;;;;;;15.29;74.71;101708.44;5043966;28;20041;-49
2021/09/24 03:33:59;;;;;;;7.65;2.97;;;;;;;15.36;74.70;101704.09;5047682;28;20098;-48
2021/09/24 03:36:24;;;;;;;9.88;3.10;;;;;;;15.43;74.69;101704.13;5045820;28;20139;-47
2021/09/24 03:38:50;;;;;;;8.93;2.92;;;;;;;15.47;74.65;101702.41;5044261;28;20040;-49
2021/09/24 03:41:15;;;;;;;5.55;3.00;;;;;;;15.52;74.54;101700.72;5046335;28;20064;-50
2021/09/24 03:43:41;;;;;;;7.57;2.92;;;;;;;15.55;74.41;101698.13;5047892;28;20048;-47
2021/09/24 03:46:06;;;;;;;6.63;2.70;;;;;;;15.57;74.24;101699.00;5051035;28;20131;-48
2021/09/24 03:48:32;;;;;;;6.38;2.85;;;;;;;15.59;74.05;101701.66;5043610;28;20532;-49
2021/09/24 03:50:57;;;;;;;8.95;2.95;;;;;;;15.65;74.20;101699.06;5040987;28;20072;-48
2021/09/24 03:53:22;;;;;;;6.30;3.05;;;;;;;15.74;74.24;101694.72;5045303;28;20381;-47
2021/09/24 03:55:52;;;;;;;7.25;2.95;;;;;;;15.85;74.31;101680.75;5048229;28;20052;-47
2021/09/24 03:58:18;;;;;;;7.03;2.88;;;;;;;15.95;73.91;101678.16;5025273;28;20460;-47
2021/09/24 04:00:43;;;;;;;7.32;2.97;;;;;;;16.00;74.18;101680.81;5032427;28;20052;-51
2021/09/24 04:03:08;;;;;;;6.50;3.00;;;;;;;16.08;74.46;101689.63;5022689;28;20449;-47
2021/09/24 04:05:34;;;;;;;10.32;3.40;;;;;;;16.17;73.97;101687.88;5046703;28;20310;-53
2021/09/24 04:07:59;;;;;;;14.70;4.63;;;;;;;16.24;74.55;101694.06;5045115;28;20044;-49
2021/09/24 04:10:24;;;;;;;10.77;4.40;;;;;;;16.33;74.68;101690.56;5048068;28;20045;-52
2021/09/24 04:12:50;;;;;;;10.55;3.80;;;;;;;16.40;74.40;101695.88;5038232;28;20502;-53
2021/09/24 04:15:15;;;;;;;10.40;4.18;;;;;;;16.46;74.36;101705.53;5047893;28;20054;-47
2021/09/24 04:17:40;;;;;;;10.38;4.10;;;;;;;16.52;74.40;101698.53;5046944;28;20182;-52
2021/09/24 04:20:06;;;;;;;9.63;4.53;;;;;;;16.62;74.12;101696.81;5044409;28;20048;-52
2021/09/24 04:22:32;;;;;;;13.55;4.72;;;;;;;16.71;73.48;101695.97;5043321;28;20074;-49
2021/09/24 04:24:57;;;;;;;10.90;3.90;;;;;;;16.76;73.49;101695.09;5041238;28;20052;-52
2021/09/24 04:27:23;;;;;;;10.85;4.28;;;;;;;16.81;72.93;101695.97;5052070;28;20024;-50
2021/09/24 04:29:48;;;;;;;8.45;4.15;;;;;;;16.86;72.92;101701.22;5028397;28;20412;-49
2021/09/24 04:32:13;;;;;;;12.77;5.00;;;;;;;16.91;73.15;101699.47;5041620;28;20040;-50
2021/09/24 04:34:39;;;;;;;13.55;4.70;;;;;;;16.99;73.09;101705.63;5043670;28;20033;-48
2021/09/24 04:37:05;;;;;;;10.57;5.30;;;;;;;17.03;73.08;101697.72;5039760;28;20398;-50
2021/09/24 04:39:30;;;;;;;14.27;5.68;;;;;;;17.07;73.29;101692.47;5045204;28;20036;-49
2021/09/24 04:41:56;;;;;;;13.68;5.47;;;;;;;17.11;73.06;101691.56;5051425;28;20109;-48
2021/09/24 04:44:21;;;;;;;14.50;5.85;;;;;;;17.16;73.09;101689.81;5042777;28;20138;-49
2021/09/24 04:46:47;;;;;;;8.82;4.90;;;;;;;17.23;73.24;101681.91;5040344;28;20337;-56
2021/09/24 04:49:13;;;;;;;21.38;6.90;;;;;;;17.26;73.13;101686.31;5045452;28;20517;-48
2021/09/24 04:51:39;;;;;;;17.88;7.07;;;;;;;17.26;73.50;101688.94;5041851;28;20143;-50
2021/09/24 04:54:05;;;;;;;16.70;7.15;;;;;;;17.28;73.67;101688.03;5030999;28;20094;-50
2021/09/24 04:56:31;;;;;;;17.23;6.93;;;;;;;17.34;73.79;101692.44;5040175;28;20044;-48
2021/09/24 04:58:56;;;;;;;18.42;7.65;;;;;;;17.28;74.31;101690.69;5043820;28;20047;-47
2021/09/24 05:01:21;;;;;;;15.73;6.90;;;;;;;17.45;73.78;101685.38;5044180;28;20132;-49
2021/09/24 05:03:47;;;;;;;20.40;8.43;;;;;;;17.40;74.03;101680.13;5029316;28;20052;-49
2021/09/24 05:06:12;;;;;;;19.77;8.40;;;;;;;17.42;74.28;101673.09;5041370;28;20207;-48
2021/09/24 05:08:38;;;;;;;20.10;8.30;;;;;;;17.43;74.10;101676.63;5045562;28;20048;-48
2021/09/24 05:11:03;;;;;;;16.40;7.95;;;;;;;17.39;73.87;101670.44;5043252;28;20248;-50
2021/09/24 05:13:29;;;;;;;23.50;9.00;;;;;;;17.39;74.00;101672.22;5047755;28;20223;-50
2021/09/24 05:15:54;;;;;;;24.67;9.85;;;;;;;17.31;74.49;101677.50;5042799;28;20040;-50
2021/09/24 05:18:19;;;;;;;24.65;10.32;;;;;;;17.33;74.71;101673.09;5025250;28;20395;-52
2021/09/24 05:20:45;;;;;;;27.08;11.60;;;;;;;17.31;75.40;101681.91;5044922;28;20554;-49
2021/09/24 05:23:10;;;;;;;29.17;11.13;;;;;;;17.39;75.45;101672.22;5023498;28;20163;-48
2021/09/24 05:25:35;;;;;;;32.00;11.00;;;;;;;17.40;75.52;101679.25;5043499;28;20628;-47
2021/09/24 05:28:00;;;;;;;29.77;12.52;;;;;;;17.42;75.80;101677.50;5047681;28;20449;-51
2021/09/24 05:30:26;;;;;;;26.98;11.48;;;;;;;17.50;75.33;101667.81;5044497;28;20127;-51
2021/09/24 05:32:53;;;;;;;30.30;11.98;;;;;;;17.54;75.26;101669.56;5018248;28;20396;-50
2021/09/24 05:35:19;;;;;;;28.85;11.48;;;;;;;17.64;75.16;101675.69;5045016;28;20467;-51
2021/09/24 05:37:44;;;;;;;35.65;12.82;;;;;;;17.64;75.74;101667.78;5046619;28;20059;-47
2021/09/24 05:40:10;;;;;;;30.10;12.60;;;;;;;17.66;75.84;101677.47;5047425;28;20183;-53
2021/09/24 05:42:36;;;;;;;35.70;12.63;;;;;;;17.68;75.81;101672.19;5041042;28;20155;-50
2021/09/24 05:45:01;;;;;;;30.63;12.73;;;;;;;17.86;75.53;101673.88;5037521;28;20119;-52
2021/09/24 05:47:26;;;;;;;41.00;14.32;;;;;;;17.86;75.76;101672.13;5041172;28;20493;-48
2021/09/24 05:49:52;;;;;;;40.47;15.27;;;;;;;17.93;75.85;101670.34;5042762;28;20351;-51
2021/09/24 05:52:17;;;;;;;37.55;14.85;;;;;;;17.96;75.95;101671.19;5040747;28;20645;-53
2021/09/24 05:54:43;;;;;;;42.03;15.18;;;;;;;18.02;76.12;101671.16;5045284;28;20041;-52
2021/09/24 05:57:09;;;;;;;37.13;15.63;;;;;;;18.05;76.12;101667.66;5018414;28;20412;-52
2021/09/24 05:59:34;;;;;;;40.83;16.42;;;;;;;18.10;76.40;101673.78;5043797;28;20515;-50
2021/09/24 06:02:00;;;;;;;37.17;14.70;;;;;;;18.19;75.97;101676.34;5041978;28;20688;-47
2021/09/24 06:04:25;;;;;;;42.05;16.00;;;;;;;18.22;76.24;101674.59;5042032;28;20511;-50
2021/09/24 06:06:50;;;;;;;42.60;16.08;;;;;;;18.37;76.07;101673.63;5036691;28;20083;-47
2021/09/24 06:09:17;;;;;;;38.08;14.73;;;;;;;18.46;76.08;101670.94;5047702;28;20230;-49
2021/09/24 06:11:43;;;;;;;40.53;14.90;;;;;;;18.57;75.85;101681.44;5044647;28;20076;-50
2021/09/24 06:14:09;;;;;;;45.65;17.35;;;;;;;18.60;76.01;101678.81;5046991;28;20445;-49
2021/09/24 06:16:34;;;;;;;47.97;17.60;;;;;;;18.69;76.00;101678.72;5040289;28;20522;-49
2021/09/24 06:18:59;;;;;;;50.65;17.73;;;;;;;18.75;75.95;101677.81;5039848;28;20173;-49
2021/09/24 06:21:25;;;;;;;43.85;16.60;;;;;;;18.81;76.03;101672.47;5042333;28;20071;-49
2021/09/24 06:23:51;;;;;;;40.00;16.63;;;;;;;18.84;76.04;101669.81;5027583;28;20036;-48
2021/09/24 06:26:16;;;;;;;35.17;14.88;;;;;;;18.89;75.89;101675.94;5039938;28;20040;-53
2021/09/24 06:28:42;;;;;;;41.92;16.98;;;;;;;18.92;75.80;101679.41;5043532;28;20044;-49
2021/09/24 06:31:07;;;;;;;41.70;17.00;;;;;;;18.93;75.93;101683.81;5036359;28;23975;-51
2021/09/24 06:33:33;;;;;;;36.42;15.60;;;;;;;19.09;75.62;101691.63;5043890;28;20048;-49
2021/09/24 06:35:58;;;;;;;41.05;16.83;;;;;;;19.12;75.67;101692.47;5027073;28;20075;-49
2021/09/24 06:38:24;;;;;;;38.03;16.75;;;;;;;19.23;75.74;101692.38;5043703;28;20045;-48
2021/09/24 06:40:50;;;;;;;42.17;16.60;;;;;;;19.35;75.79;101689.59;5038981;28;20379;-47
2021/09/24 06:43:16;;;;;;;37.28;15.60;;;;;;;19.45;75.45;101696.59;5027956;28;20492;-49
2021/09/24 06:45:41;;;;;;;37.47;15.52;;;;;;;19.50;75.04;101686.88;5041616;28;20052;-48
2021/09/24 06:48:07;;;;;;;33.10;14.40;;;;;;;19.55;74.33;101684.16;5043265;28;20381;-48
2021/09/24 06:50:33;;;;;;;33.63;14.77;;;;;;;19.51;74.12;101683.34;5037277;28;20503;-52
2021/09/24 06:52:58;;;;;;;32.13;14.50;;;;;;;19.55;74.09;101694.75;5037711;28;20306;-47
2021/09/24 06:55:25;;;;;;;30.05;14.20;;;;;;;19.65;73.99;101694.63;5039107;28;20488;-47
2021/09/24 06:57:54;;;;;;;31.27;14.13;;;;;;;19.76;73.80;101698.00;5036985;28;20048;-49
2021/09/24 07:00:20;;;;;;;28.13;13.95;;;;;;;19.91;73.51;101693.44;5045699;28;20054;-52
2021/09/24 07:02:45;;;;;;;23.42;12.65;;;;;;;20.06;73.28;101685.34;5040744;28;20044;-53
2021/09/24 07:05:11;;;;;;;27.67;13.35;;;;;;;20.19;72.73;101681.59;5037916;28;20060;-52
2021/09/24 07:07:36;;;;;;;24.90;13.00;;;;;;;20.33;72.21;101678.81;5035101;28;20148;-52
2021/09/24 07:10:03;;;;;;;26.55;12.73;;;;;;;20.41;71.62;101683.09;5033009;28;20044;-52
2021/09/24 07:12:28;;;;;;;22.63;12.13;;;;;;;20.42;71.31;101689.28;5044564;28;20729;-48
2021/09/24 07:14:54;;;;;;;21.70;12.40;;;;;;;20.43;71.31;101688.41;5031638;28;20842;-47
2021/09/24 07:17:19;;;;;;;26.90;12.73;;;;;;;20.64;71.19;101691.59;5041441;28;20055;-49
2021/09/24 07:19:44;;;;;;;21.50;11.20;;;;;;;20.97;69.91;101686.66;5039096;28;20146;-48
2021/09/24 07:22:10;;;;;;;24.55;11.50;;;;;;;21.25;69.37;101693.28;5043570;28;20075;-52
2021/09/24 07:24:35;;;;;;;20.70;11.40;;;;;;;21.44;68.51;101693.81;5044058;28;20334;-52
2021/09/24 07:27:01;;;;;;;20.75;11.38;;;;;;;21.50;67.66;101691.03;5038742;28;20056;-50
2021/09/24 07:29:26;;;;;;;19.50;11.15;;;;;;;21.68;67.87;101684.50;5027684;28;20586;-53
2021/09/24 07:31:52;;;;;;;19.00;10.30;;;;;;;21.69;67.37;101686.25;5044251;28;20528;-50
2021/09/24 07:34:17;;;;;;;20.10;10.38;;;;;;;21.77;67.30;101692.31;5037729;28;20225;-51
2021/09/24 07:36:44;;;;;;;24.60;11.80;;;;;;;21.73;67.08;101693.25;5038590;28;20143;-48
2021/09/24 07:39:10;;;;;;;21.02;10.85;;;;;;;21.63;67.13;101694.34;5012810;28;20036;-51
2021/09/24 07:41:35;;;;;;;18.88;10.55;;;;;;;21.65;67.25;101692.53;5043560;28;20392;-50
2021/09/24 07:44:03;;;;;;;19.70;10.77;;;;;;;21.61;67.44;101696.16;5044062;28;20094;-49
2021/09/24 07:46:31;;;;;;;20.63;10.60;;;;;;;21.55;67.29;101690.94;5043909;28;20036;-48
2021/09/24 07:48:56;;;;;;;20.55;10.98;;;;;;;21.56;67.68;101693.59;5033302;28;20168;-50
2021/09/24 07:51:22;;;;;;;20.67;9.73;;;;;;;21.65;67.29;101695.19;5008530;28;20135;-53
2021/09/24 07:53:47;;;;;;;20.58;10.13;;;;;;;21.84;67.04;101691.25;5021576;28;20076;-50
2021/09/24 07:56:13;;;;;;;19.33;10.05;;;;;;;21.86;67.35;101694.75;5041772;28;20071;-50
2021/09/24 07:58:39;;;;;;;19.77;9.90;;;;;;;21.94;66.11;101690.19;5009230;28;20037;-52
2021/09/24 08:01:06;;;;;;;17.30;9.60;;;;;;;21.96;65.95;101691.03;5035608;28;20327;-50
2021/09/24 08:03:32;;;;;;;18.48;9.48;;;;;;;21.94;66.04;101689.31;5042815;28;20591;-51
2021/09/24 08:05:57;;;;;;;19.17;9.18;;;;;;;21.95;66.65;101691.97;5024077;28;20158;-50
2021/09/24 08:08:22;;;;;;;18.02;9.23;;;;;;;22.36;64.91;101685.75;5038607;28;20052;-52
2021/09/24 08:10:48;;;;;;;18.30;8.80;;;;;;;22.61;64.13;101697.59;5036593;28;20044;-53
2021/09/24 08:13:13;;;;;;;16.10;8.57;;;;;;;22.68;63.13;101685.03;5038470;28;20131;-50
2021/09/24 08:15:43;;;;;;;19.38;9.02;;;;;;;22.81;63.08;101686.47;5043969;28;20101;-52
2021/09/24 08:18:10;;;;;;;16.25;8.50;;;;;;;22.78;62.92;101686.56;5038640;28;20046;-50
2021/09/24 08:20:35;;;;;;;17.02;8.50;;;;;;;22.89;62.27;101687.19;5042327;28;20444;-49
2021/09/24 08:23:00;;;;;;;14.85;8.50;;;;;;;22.87;62.74;101699.63;5022968;28;20055;-49
2021/09/24 08:25:26;;;;;;;21.73;8.80;;;;;;;22.86;62.38;101697.03;5045572;28;20048;-49
2021/09/24 08:27:51;;;;;;;15.05;8.30;;;;;;;22.74;64.19;101697.31;5040910;28;20386;-50
2021/09/24 08:30:20;;;;;;;19.58;8.00;;;;;;;22.95;62.75;101692.34;5048635;28;20380;-50
2021/09/24 08:32:46;;;;;;;17.30;7.38;;;;;;;23.02;61.39;101685.97;5042394;28;20048;-48
2021/09/24 08:35:13;;;;;;;14.77;7.20;;;;;;;23.01;60.82;101686.00;5020522;28;20056;-49
2021/09/24 08:37:39;;;;;;;17.65;6.57;;;;;;;22.92;60.28;101694.22;5046116;28;20048;-54
2021/09/24 08:40:06;;;;;;;10.48;6.03;;;;;;;22.74;61.40;101690.22;5021854;28;20055;-51
2021/09/24 08:42:33;;;;;;;10.85;6.28;;;;;;;22.61;61.40;101692.28;5024838;28;20068;-53
2021/09/24 08:44:59;;;;;;;14.88;6.05;;;;;;;22.58;60.74;101691.44;5017585;28;20040;-50
2021/09/24 08:47:27;;;;;;;14.98;5.85;;;;;;;22.53;60.43;101693.34;5048218;28;20443;-50
2021/09/24 08:49:53;;;;;;;12.40;6.10;;;;;;;22.48;59.88;101695.22;5013472;28;20072;-49
2021/09/24 08:52:18;;;;;;;11.68;5.82;;;;;;;22.49;60.89;101687.25;5043288;28;20071;-49
2021/09/24 08:54:43;;;;;;;12.98;5.90;;;;;;;22.62;59.36;101694.03;5041633;28;20040;-51
2021/09/24 08:57:15;;;;;;;16.42;6.55;;;;;;;22.57;59.94;101695.00;5038317;28;21095;-52
2021/09/24 08:59:41;;;;;;;11.65;6.30;;;;;;;22.51;59.90;101693.38;5043927;28;20073;-51
2021/09/24 09:02:08;;;;;;;12.15;5.70;;;;;;;22.56;59.80;101701.25;5025241;28;20045;-54
2021/09/24 09:04:38;;;;;;;11.05;6.18;;;;;;;22.41;59.78;101696.28;5042768;28;20036;-51
2021/09/24 09:07:08;;;;;;;15.07;6.20;;;;;;;22.51;60.08;101698.69;5038891;28;20324;-53
2021/09/24 09:09:36;;;;;;;14.85;6.00;;;;;;;22.49;59.94;101692.56;5038239;28;20049;-53
2021/09/24 09:12:16;;;;;;;14.23;6.15;;;;;;;22.73;59.23;101688.47;5026937;28;20033;-49
2021/09/24 09:15:01;;;;;;;11.95;6.50;;;;;;;22.82;58.98;101693.56;5042003;28;20080;-52
2021/09/24 09:17:32;;;;;;;10.15;5.95;;;;;;;22.71;58.55;101694.69;5040755;28;20440;-51
2021/09/24 09:20:20;;;;;;;10.10;5.85;;;;;;;22.64;59.31;101691.31;5041319;28;20555;-50
2021/09/24 09:23:06;;;;;;;10.95;5.65;;;;;;;22.91;60.01;101687.16;5019575;28;20075;-53
2021/09/24 09:25:38;;;;;;;12.55;5.20;;;;;;;23.28;57.88;101692.41;5045534;28;20058;-50
2021/09/24 09:28:09;;;;;;;13.48;5.50;;;;;;;23.32;56.82;101692.28;5044040;28;20029;-50
2021/09/24 09:30:37;;;;;;;11.32;5.03;;;;;;;23.48;57.32;101678.63;5040838;28;20715;-54
2021/09/24 09:33:08;;;;;;;8.95;6.00;;;;;;;23.43;56.19;101684.00;5029231;28;20036;-49
2021/09/24 09:35:44;;;;;;;13.70;5.97;;;;;;;23.25;56.30;101684.50;5040860;28;20060;-54
2021/09/24 09:38:31;;;;;;;9.75;5.55;;;;;;;23.32;56.90;101670.13;5038226;28;20094;-52
2021/09/24 09:41:06;;;;;;;11.18;6.05;;;;;;;23.43;56.20;101674.22;5035708;28;20037;-49
2021/09/24 09:43:40;;;;;;;15.98;6.75;;;;;;;23.45;55.86;101682.19;5022030;28;20059;-50
2021/09/24 09:46:07;;;;;;;;;;;;;;;23.60;55.29;101673.84;5043163;28;20048;-51
2021/09/24 09:48:33;;;;;;;14.10;6.40;;;;;;;23.33;55.10;101669.22;5041510;28;19998;-50
2021/09/24 09:50:59;;;;;;;10.68;6.30;;;;;;;23.28;55.59;101669.34;5017649;28;20124;-52
2021/09/24 09:53:24;;;;;;;12.98;6.63;;;;;;;23.19;55.56;101666.03;5044132;28;20037;-50
2021/09/24 09:56:03;;;;;;;10.32;5.82;;;;;;;23.08;56.73;101653.03;5043197;28;20036;-48
2021/09/24 09:58:36;;;;;;;8.73;5.35;;;;;;;23.24;56.05;101658.81;5041932;28;20480;-54
2021/09/24 10:01:06;;;;;;;10.85;5.13;;;;;;;23.39;54.43;101651.28;5018460;28;20452;-50
2021/09/24 10:03:51;;;;;;;7.93;4.70;;;;;;;23.79;53.08;101653.72;5045934;28;20052;-50
2021/09/24 10:06:23;;;;;;;9.85;4.43;;;;;;;23.65;53.66;101655.06;5024658;28;20037;-50
2021/09/24 10:08:56;;;;;;;10.15;4.53;;;;;;;23.53;54.53;101663.38;5036774;28;20041;-56
2021/09/24 10:11:39;;;;;;;10.00;4.60;;;;;;;23.61;54.83;101654.25;5043557;28;20524;-52
2021/09/24 10:14:05;;;;;;;8.30;4.20;;;;;;;23.60;52.40;101651.66;5021966;28;20048;-48
2021/09/24 10:16:35;;;;;;;12.77;4.50;;;;;;;23.45;53.52;101651.13;5046046;28;20048;-48
2021/09/24 10:19:00;;;;;;;12.68;4.57;;;;;;;23.44;53.12;101649.38;5038035;28;20049;-48
2021/09/24 10:21:27;;;;;;;8.45;4.55;;;;;;;23.44;54.29;101653.81;5043411;28;20515;-50
2021/09/24 10:23:53;;;;;;;9.90;5.03;;;;;;;23.28;54.24;101647.19;5036809;28;20047;-50
2021/09/24 10:26:40;;;;;;;11.07;5.20;;;;;;;23.34;54.06;101653.22;5043893;28;20036;-51
2021/09/24 10:29:20;;;;;;;8.88;4.68;;;;;;;23.43;54.19;101644.97;5032670;28;20351;-51
2021/09/24 10:31:50;;;;;;;12.93;4.90;;;;;;;23.50;54.73;101637.72;5041385;28;20333;-52
2021/09/24 10:34:17;;;;;;;10.35;5.05;;;;;;;23.65;54.53;101639.97;5023742;28;20036;-51
2021/09/24 10:36:53;;;;;;;9.48;5.13;;;;;;;23.74;53.66;101649.47;5025015;28;20098;-56
2021/09/24 10:39:31;;;;;;;9.73;4.38;;;;;;;23.82;53.70;101645.66;5042500;28;20648;-49
2021/09/24 10:42:23;;;;;;;10.38;4.35;;;;;;;23.93;55.30;101641.81;5041102;28;20492;-53
2021/09/24 10:45:11;;;;;;;9.45;4.60;;;;;;;24.36;53.81;101646.72;5033356;28;20036;-56
2021/09/24 10:47:52;;;;;;;9.25;4.20;;;;;;;24.37;51.56;101638.69;5040994;28;20516;-51
2021/09/24 10:50:30;;;;;;;8.43;4.50;;;;;;;24.18;51.58;101646.38;5040248;28;20045;-49
2021/09/24 10:53:24;;;;;;;6.32;4.20;;;;;;;23.97;51.87;101654.97;5035721;28;20575;-50
2021/09/24 10:55:52;;;;;;;6.07;3.53;;;;;;;23.95;51.61;101654.19;5044342;28;20049;-51
2021/09/24 10:58:27;;;;;;;6.63;3.70;;;;;;;23.59;53.14;101645.47;5041935;28;20046;-52
2021/09/24 11:00:55;;;;;;;5.60;3.30;;;;;;;23.64;52.44;101650.66;5036600;28;20049;-52
2021/09/24 11:03:22;;;;;;;5.35;2.95;;;;;;;23.69;52.18;101648.72;5042197;28;20462;-52
2021/09/24 11:06:02;;;;;;;5.68;3.25;;;;;;;23.73;51.78;101651.25;5023097;28;20024;-48
2021/09/24 11:08:33;;;;;;;6.70;3.30;;;;;;;23.66;52.20;101647.03;5041835;28;20130;-48
2021/09/24 11:11:20;;;;;;;9.15;3.30;;;;;;;23.77;51.48;101647.59;5037470;28;20051;-54
2021/09/24 11:13:50;;;;;;;5.53;3.03;;;;;;;23.99;51.23;101639.84;5045272;28;20714;-52
2021/09/24 11:16:22;;;;;;;6.35;2.88;;;;;;;24.18;50.62;101642.81;5042540;28;20072;-51
2021/09/24 11:18:56;;;;;;;10.40;3.20;;;;;;;23.99;52.37;101638.97;5039220;28;20512;-52